Time;durP1;ratioP1;P1;durP2;ratioP2;P2;SDS_P1;SDS_P2;PMS_P1;PMS_P2;Temp;Humidity;BMP_temperature;BMP_pressure;BME280_temperature;BME280_humidity;BME280_pressure;Samples;Min_cycle;Max_cycle;Signal;HPM_P1;HPM_P2
2023/05/07 00:00:28;;;;;;;20.23;16.67;;;13.60;99.90;;;;;;4938831;29;20415;-83
2023/05/07 00:02:54;;;;;;;20.85;17.23;;;13.70;99.90;;;;;;4923080;29;20043;-84
2023/05/07 00:05:20;;;;;;;20.90;17.73;;;13.50;99.90;;;;;;4939426;29;20055;-85
2023/05/07 00:07:46;;;;;;;20.80;17.30;;;13.50;99.90;;;;;;4939439;29;20055;-84
2023/05/07 00:10:12;;;;;;;19.40;16.15;;;13.50;99.90;;;;;;4939080;29;20063;-84
2023/05/07 00:12:38;;;;;;;21.67;16.38;;;13.50;99.90;;;;;;4932861;28;20046;-84
2023/05/07 00:15:08;;;;;;;22.58;18.25;;;13.50;99.90;;;;;;4958219;28;20474;-83
2023/05/07 00:17:34;;;;;;;21.48;17.85;;;13.40;99.90;;;;;;4942316;28;20126;-83
2023/05/07 00:20:02;;;;;;;22.10;18.75;;;13.30;99.90;;;;;;4941892;28;20086;-83
2023/05/07 00:22:29;;;;;;;23.42;18.98;;;13.30;99.90;;;;;;4942491;28;20078;-83
2023/05/07 00:24:55;;;;;;;21.33;18.05;;;13.20;99.90;;;;;;4942533;28;20113;-84
2023/05/07 00:27:22;;;;;;;24.10;19.33;;;13.20;99.90;;;;;;4957845;28;20070;-83
2023/05/07 00:29:48;;;;;;;22.33;18.35;;;13.20;99.90;;;;;;4957826;28;20053;-83
2023/05/07 00:32:14;;;;;;;22.73;18.13;;;13.20;99.90;;;;;;4926137;28;20402;-83
2023/05/07 00:34:40;;;;;;;23.77;20.13;;;13.20;99.90;;;;;;4941978;28;20138;-84
2023/05/07 00:37:07;;;;;;;24.33;19.48;;;12.70;99.90;;;;;;4957771;28;20126;-83
2023/05/07 00:39:33;;;;;;;23.95;19.35;;;13.00;99.90;;;;;;4957808;28;20415;-84
2023/05/07 00:42:00;;;;;;;23.70;19.38;;;13.00;99.90;;;;;;4957320;28;20451;-84
2023/05/07 00:44:29;;;;;;;23.38;19.50;;;13.00;99.90;;;;;;4942289;28;20046;-83
2023/05/07 00:47:01;;;;;;;23.25;18.95;;;13.00;99.90;;;;;;4957864;28;20054;-83
2023/05/07 00:49:37;;;;;;;23.30;19.10;;;12.90;99.90;;;;;;4957634;28;20407;-83
2023/05/07 00:52:03;;;;;;;25.42;20.23;;;12.90;99.90;;;;;;4957713;28;20086;-82
2023/05/07 00:54:29;;;;;;;23.92;19.92;;;12.80;99.90;;;;;;4925714;28;20541;-83
2023/05/07 00:56:55;;;;;;;24.15;20.52;;;12.90;99.90;;;;;;4957429;28;20051;-83
2023/05/07 00:59:21;;;;;;;25.75;21.30;;;12.80;99.90;;;;;;4941480;28;20434;-83
2023/05/07 01:01:47;;;;;;;26.55;21.15;;;12.70;99.90;;;;;;4957122;28;20051;-82
2023/05/07 01:04:13;;;;;;;26.10;21.38;;;12.70;99.90;;;;;;4957178;28;20053;-83
2023/05/07 01:06:39;;;;;;;27.15;21.85;;;12.70;99.90;;;;;;4957709;28;20085;-82
2023/05/07 01:09:05;;;;;;;27.50;20.48;;;12.60;99.90;;;;;;4925698;28;20058;-82
2023/05/07 01:11:31;;;;;;;26.02;22.65;;;12.60;99.90;;;;;;4941576;28;20050;-81
2023/05/07 01:13:59;;;;;;;25.98;21.95;;;12.60;99.90;;;;;;4957579;28;20488;-82
2023/05/07 01:16:25;;;;;;;28.30;22.45;;;12.50;99.90;;;;;;4957055;28;20057;-83
2023/05/07 01:18:50;;;;;;;27.75;21.63;;;12.50;99.90;;;;;;4956968;28;20055;-82
2023/05/07 01:21:17;;;;;;;25.63;21.40;;;12.40;99.90;;;;;;4957283;28;20057;-82
2023/05/07 01:23:45;;;;;;;30.13;24.30;;;12.50;99.90;;;;;;4941606;28;20054;-83
2023/05/07 01:26:10;;;;;;;26.60;22.75;;;12.40;99.90;;;;;;4957594;28;20081;-82
2023/05/07 01:28:36;;;;;;;25.48;20.67;;;12.30;99.90;;;;;;4957434;28;20111;-81
2023/05/07 01:31:04;;;;;;;31.65;23.63;;;12.30;99.90;;;;;;4940988;28;20051;-81
2023/05/07 01:33:33;;;;;;;30.30;23.75;;;12.30;99.90;;;;;;4941504;28;20162;-81
2023/05/07 01:36:02;;;;;;;29.88;22.73;;;12.30;99.90;;;;;;4957031;28;20043;-82
2023/05/07 01:38:28;;;;;;;31.70;23.50;;;12.20;99.90;;;;;;4940861;28;20047;-82
2023/05/07 01:40:54;;;;;;;31.35;25.40;;;12.10;99.90;;;;;;4925204;28;20109;-81
2023/05/07 01:43:20;;;;;;;30.98;25.08;;;12.10;99.90;;;;;;4957333;28;20478;-81
2023/05/07 01:45:47;;;;;;;30.77;25.55;;;12.10;99.90;;;;;;4941395;28;20058;-82
2023/05/07 01:48:14;;;;;;;30.95;25.38;;;12.00;99.90;;;;;;4957251;28;20133;-81
2023/05/07 01:50:40;;;;;;;33.00;25.60;;;12.00;99.90;;;;;;4940654;28;20093;-80
2023/05/07 01:53:09;;;;;;;31.55;25.38;;;12.00;99.90;;;;;;4941059;28;20065;-80
2023/05/07 01:55:36;;;;;;;32.38;26.10;;;11.90;99.90;;;;;;4941294;28;20505;-80
2023/05/07 01:58:02;;;;;;;34.30;25.30;;;11.90;99.90;;;;;;4941170;28;20054;-81
2023/05/07 02:00:28;;;;;;;34.22;26.92;;;11.90;99.90;;;;;;4956820;28;20497;-81
2023/05/07 02:02:54;;;;;;;35.17;27.92;;;11.80;99.90;;;;;;4942831;28;20134;-79
2023/05/07 02:05:20;;;;;;;33.67;27.35;;;11.80;99.90;;;;;;4944840;28;20109;-81
2023/05/07 02:07:46;;;;;;;34.65;29.67;;;11.80;99.90;;;;;;4960655;28;20050;-82
2023/05/07 02:10:14;;;;;;;38.15;30.45;;;11.70;99.90;;;;;;4944764;28;20051;-81
2023/05/07 02:12:40;;;;;;;38.30;29.10;;;11.70;99.90;;;;;;4960617;28;20054;-82
2023/05/07 02:15:06;;;;;;;37.25;28.83;;;11.60;99.90;;;;;;4944469;28;20059;-82
2023/05/07 02:17:32;;;;;;;37.95;30.65;;;11.70;99.90;;;;;;4959965;28;20057;-83
2023/05/07 02:19:58;;;;;;;38.60;29.83;;;11.60;99.90;;;;;;4960364;28;20488;-82
2023/05/07 02:22:25;;;;;;;40.90;32.10;;;11.60;99.90;;;;;;4960248;28;20115;-81
2023/05/07 02:24:51;;;;;;;42.35;34.17;;;11.60;99.90;;;;;;4944496;28;20047;-82
2023/05/07 02:27:17;;;;;;;41.65;32.30;;;11.60;99.90;;;;;;4959848;28;20506;-83
2023/05/07 02:29:42;;;;;;;38.42;28.33;;;11.60;99.90;;;;;;4960335;28;20148;-81
2023/05/07 02:32:08;;;;;;;40.95;31.90;;;11.60;99.90;;;;;;4960333;28;20039;-81
2023/05/07 02:34:34;;;;;;;40.60;30.75;;;11.60;99.90;;;;;;4944300;28;20483;-82
2023/05/07 02:37:00;;;;;;;47.05;36.90;;;11.60;99.90;;;;;;4960014;28;20047;-83
2023/05/07 02:39:26;;;;;;;46.20;33.72;;;11.50;99.90;;;;;;4960195;28;20074;-83
2023/05/07 02:41:51;;;;;;;47.03;32.03;;;11.50;99.90;;;;;;4959511;28;20038;-82
2023/05/07 02:44:17;;;;;;;46.20;35.25;;;11.50;99.90;;;;;;4944300;28;20054;-82
2023/05/07 02:46:43;;;;;;;46.50;34.15;;;11.50;99.90;;;;;;4959677;28;20059;-83
2023/05/07 02:49:09;;;;;;;46.08;35.40;;;11.50;99.90;;;;;;4943966;28;20047;-83
2023/05/07 02:51:34;;;;;;;44.67;35.60;;;11.50;99.90;;;;;;4943736;28;20510;-83
2023/05/07 02:54:00;;;;;;;47.38;36.05;;;11.50;99.90;;;;;;4959965;28;20047;-82
2023/05/07 02:56:27;;;;;;;49.90;37.38;;;11.50;99.90;;;;;;4944015;28;20090;-82
2023/05/07 02:58:52;;;;;;;49.65;37.05;;;11.50;99.90;;;;;;4959822;28;20573;-82
2023/05/07 03:01:18;;;;;;;49.20;37.65;;;11.40;99.90;;;;;;4959438;28;20083;-82
2023/05/07 03:03:44;;;;;;;50.22;38.70;;;11.50;99.90;;;;;;4959651;28;20076;-83
2023/05/07 03:06:10;;;;;;;47.38;35.53;;;11.40;99.90;;;;;;4943236;28;20051;-82
2023/05/07 03:08:36;;;;;;;47.35;35.00;;;11.40;99.90;;;;;;4976815;28;20061;-82
2023/05/07 03:11:02;;;;;;;45.38;35.00;;;11.40;99.90;;;;;;4959281;28;20201;-82
2023/05/07 03:13:28;;;;;;;48.28;37.45;;;11.40;99.90;;;;;;4923894;29;20085;-82
2023/05/07 03:15:54;;;;;;;50.92;37.97;;;11.40;99.90;;;;;;4923982;29;20091;-82
2023/05/07 03:18:20;;;;;;;46.78;35.60;;;11.40;99.90;;;;;;4923989;29;20047;-83
2023/05/07 03:20:46;;;;;;;47.38;35.88;;;11.40;99.90;;;;;;4908242;29;20113;-83
2023/05/07 03:23:11;;;;;;;47.58;36.90;;;11.40;99.90;;;;;;4924056;29;20424;-82
2023/05/07 03:25:37;;;;;;;46.10;35.17;;;11.40;99.90;;;;;;4924396;29;20098;-83
2023/05/07 03:28:03;;;;;;;49.25;37.13;;;11.30;99.90;;;;;;4923689;29;20052;-83
2023/05/07 03:30:29;;;;;;;48.28;36.78;;;11.40;99.90;;;;;;4939691;29;20055;-83
2023/05/07 03:32:55;;;;;;;45.97;36.17;;;11.40;99.90;;;;;;4939521;29;20040;-82
2023/05/07 03:35:20;;;;;;;45.67;33.65;;;11.40;99.90;;;;;;4939823;29;20062;-83
2023/05/07 03:37:46;;;;;;;45.28;36.25;;;11.30;99.90;;;;;;4939900;29;20475;-82
2023/05/07 03:40:12;;;;;;;45.80;35.88;;;11.40;99.90;;;;;;4939950;29;20082;-82
2023/05/07 03:42:38;;;;;;;46.78;36.40;;;11.40;99.90;;;;;;4948777;28;20411;-83
2023/05/07 03:45:05;;;;;;;43.83;35.05;;;11.40;99.90;;;;;;4958485;28;20046;-83
2023/05/07 03:47:30;;;;;;;42.17;32.38;;;11.30;99.90;;;;;;4958689;28;20384;-82
2023/05/07 03:49:56;;;;;;;46.20;34.67;;;11.30;99.90;;;;;;4959018;28;20066;-83
2023/05/07 03:52:25;;;;;;;42.80;33.67;;;11.30;99.90;;;;;;4942300;28;20133;-84
2023/05/07 03:54:52;;;;;;;45.53;34.22;;;11.30;99.90;;;;;;4942700;28;20047;-84
2023/05/07 03:57:18;;;;;;;41.78;33.53;;;11.30;99.90;;;;;;4958861;28;20392;-83
2023/05/07 03:59:46;;;;;;;39.95;29.80;;;11.30;99.90;;;;;;4958698;28;20086;-81
2023/05/07 04:02:12;;;;;;;36.22;28.98;;;11.30;99.90;;;;;;4958047;28;20093;-82
2023/05/07 04:04:38;;;;;;;38.17;30.70;;;11.30;99.90;;;;;;4958080;28;20086;-82
2023/05/07 04:07:04;;;;;;;40.45;31.83;;;11.20;99.90;;;;;;4942244;28;20050;-82
2023/05/07 04:09:33;;;;;;;39.30;30.65;;;11.20;99.90;;;;;;4942317;28;20054;-83
2023/05/07 04:11:58;;;;;;;39.40;30.50;;;11.20;99.90;;;;;;4958462;28;20059;-83
2023/05/07 04:14:24;;;;;;;39.88;30.02;;;11.20;99.90;;;;;;4958429;28;20387;-83
2023/05/07 04:16:50;;;;;;;39.75;30.95;;;11.20;99.90;;;;;;4957917;28;20454;-83
2023/05/07 04:19:16;;;;;;;36.45;29.63;;;11.30;99.90;;;;;;4941918;28;20090;-84
2023/05/07 04:21:41;;;;;;;36.35;30.67;;;11.20;99.90;;;;;;4957829;28;20125;-83
2023/05/07 04:24:15;;;;;;;38.63;32.55;;;11.20;99.90;;;;;;4943060;28;20050;-83
2023/05/07 04:26:41;;;;;;;39.60;30.85;;;11.20;99.90;;;;;;4957359;28;20051;-83
2023/05/07 04:29:07;;;;;;;38.15;31.27;;;11.10;99.90;;;;;;4958207;28;20105;-83
2023/05/07 04:31:33;;;;;;;35.78;29.20;;;11.10;99.90;;;;;;4942398;28;20414;-84
2023/05/07 04:33:58;;;;;;;37.40;29.90;;;11.20;99.90;;;;;;4925756;28;20442;-84
2023/05/07 04:36:27;;;;;;;36.40;30.55;;;11.10;99.90;;;;;;4942157;28;20376;-83
2023/05/07 04:38:53;;;;;;;36.35;30.20;;;11.10;99.90;;;;;;4958163;28;20094;-84
2023/05/07 04:41:20;;;;;;;37.35;30.00;;;11.20;99.90;;;;;;4942520;28;20537;-84
2023/05/07 04:43:46;;;;;;;37.15;30.13;;;11.10;99.90;;;;;;4958422;28;20133;-84
2023/05/07 04:46:11;;;;;;;36.08;29.52;;;11.20;99.90;;;;;;4957977;28;20141;-84
2023/05/07 04:48:37;;;;;;;36.22;29.83;;;11.20;99.90;;;;;;4958305;28;20065;-84
2023/05/07 04:51:03;;;;;;;35.15;28.67;;;11.20;99.90;;;;;;4958415;28;20395;-84
2023/05/07 04:53:28;;;;;;;34.58;27.83;;;11.30;99.90;;;;;;4958243;28;20479;-84
2023/05/07 04:55:58;;;;;;;35.78;28.50;;;11.30;99.90;;;;;;4957562;28;20043;-84
2023/05/07 04:58:24;;;;;;;36.45;29.23;;;11.30;99.90;;;;;;4957444;28;20562;-84
2023/05/07 05:00:49;;;;;;;34.60;27.92;;;11.30;99.90;;;;;;4957394;28;20050;-84
2023/05/07 05:03:15;;;;;;;37.85;31.42;;;11.30;99.90;;;;;;4941534;28;20333;-84
2023/05/07 05:05:41;;;;;;;34.53;28.80;;;11.30;99.90;;;;;;4957283;28;20105;-84
2023/05/07 05:08:07;;;;;;;39.90;29.75;;;11.20;99.90;;;;;;4957627;28;20480;-84
2023/05/07 05:10:33;;;;;;;34.08;27.75;;;11.20;99.90;;;;;;4941430;28;20058;-84
2023/05/07 05:13:02;;;;;;;34.05;28.63;;;11.30;99.90;;;;;;4957518;28;20065;-84
2023/05/07 05:15:27;;;;;;;36.90;31.10;;;11.30;99.90;;;;;;4958365;28;20086;-84
2023/05/07 05:17:53;;;;;;;35.70;27.65;;;11.30;99.90;;;;;;4958365;28;20100;-84
2023/05/07 05:20:19;;;;;;;34.20;28.73;;;11.30;99.90;;;;;;4957579;28;20042;-84
2023/05/07 05:22:44;;;;;;;34.63;29.48;;;11.30;99.90;;;;;;4941317;28;20475;-84
2023/05/07 05:25:10;;;;;;;33.75;28.30;;;11.40;99.90;;;;;;4957168;28;20046;-83
2023/05/07 05:27:36;;;;;;;34.42;28.85;;;11.40;99.90;;;;;;4941781;28;20372;-83
2023/05/07 05:30:03;;;;;;;34.22;30.52;;;11.50;99.90;;;;;;4941044;28;20142;-84
2023/05/07 05:32:28;;;;;;;34.90;26.88;;;11.50;99.90;;;;;;4957096;28;20487;-83
2023/05/07 05:34:55;;;;;;;33.50;28.42;;;11.50;99.90;;;;;;4941169;28;20125;-84
2023/05/07 05:37:21;;;;;;;33.03;29.10;;;11.60;99.90;;;;;;4960410;28;20050;-84
2023/05/07 05:39:49;;;;;;;34.25;26.33;;;11.60;99.90;;;;;;4929472;28;20062;-84
2023/05/07 05:42:15;;;;;;;35.42;28.50;;;11.60;99.90;;;;;;4960616;28;20053;-85
2023/05/07 05:44:44;;;;;;;34.17;28.98;;;11.60;99.90;;;;;;4946060;28;20047;-84
2023/05/07 05:47:09;;;;;;;33.50;27.73;;;11.60;99.90;;;;;;4961652;28;20053;-84
2023/05/07 05:49:35;;;;;;;32.15;26.65;;;11.70;99.90;;;;;;4960698;28;20051;-83
2023/05/07 05:52:01;;;;;;;34.00;28.35;;;11.40;99.90;;;;;;4960694;28;20051;-82
2023/05/07 05:54:26;;;;;;;35.00;27.42;;;11.70;99.90;;;;;;4960429;28;20049;-83
2023/05/07 05:56:55;;;;;;;34.70;27.52;;;11.70;99.90;;;;;;4945053;28;20105;-83
2023/05/07 05:59:21;;;;;;;36.33;28.98;;;11.70;99.90;;;;;;4961023;28;20046;-82
2023/05/07 06:01:47;;;;;;;39.05;30.25;;;11.80;99.90;;;;;;4960543;28;20068;-82
2023/05/07 06:04:16;;;;;;;34.05;27.92;;;11.80;99.90;;;;;;4960491;28;20455;-82
2023/05/07 06:06:42;;;;;;;32.72;25.27;;;11.80;99.90;;;;;;4960839;28;20439;-82
2023/05/07 06:09:07;;;;;;;34.75;28.60;;;11.80;99.90;;;;;;4944546;28;20142;-82
2023/05/07 06:11:36;;;;;;;33.25;28.17;;;11.80;99.90;;;;;;4960030;28;20057;-82
2023/05/07 06:14:02;;;;;;;33.85;27.48;;;11.30;99.90;;;;;;4960702;28;20054;-83
2023/05/07 06:16:28;;;;;;;34.10;28.08;;;11.90;99.90;;;;;;4959867;28;20069;-83
2023/05/07 06:18:54;;;;;;;33.60;24.85;;;12.00;99.90;;;;;;4944099;28;20054;-82
2023/05/07 06:21:19;;;;;;;38.20;28.92;;;12.00;99.90;;;;;;4928778;28;20082;-82
2023/05/07 06:23:45;;;;;;;35.05;29.35;;;12.40;99.90;;;;;;4960497;28;20046;-83
2023/05/07 06:26:11;;;;;;;34.38;28.17;;;12.10;99.90;;;;;;4960363;28;20051;-82
2023/05/07 06:28:37;;;;;;;36.95;28.02;;;12.10;99.90;;;;;;4960075;28;20046;-82
2023/05/07 06:31:17;;;;;;;34.22;27.67;;;12.00;99.90;;;;;;4943830;28;20054;-82
2023/05/07 06:33:44;;;;;;;35.97;28.38;;;12.00;99.90;;;;;;4944448;28;20055;-82
2023/05/07 06:36:10;;;;;;;35.22;28.40;;;12.00;99.90;;;;;;4960240;28;20051;-82
2023/05/07 06:38:36;;;;;;;36.10;29.55;;;12.10;99.90;;;;;;4960218;28;20047;-82
2023/05/07 06:41:01;;;;;;;35.03;27.88;;;12.10;99.90;;;;;;4959853;28;20047;-82
2023/05/07 06:43:27;;;;;;;35.95;26.90;;;12.10;99.90;;;;;;4944227;28;20043;-82
2023/05/07 06:45:53;;;;;;;34.85;28.75;;;12.10;99.90;;;;;;4959921;28;20050;-81
2023/05/07 06:48:19;;;;;;;35.55;26.70;;;12.10;99.90;;;;;;4958621;28;20042;-81
2023/05/07 06:50:45;;;;;;;35.13;28.92;;;12.10;99.90;;;;;;4959880;28;20133;-81
2023/05/07 06:53:11;;;;;;;35.50;28.65;;;12.20;99.90;;;;;;4959601;28;20522;-81
2023/05/07 06:55:38;;;;;;;34.55;28.17;;;12.10;99.90;;;;;;4960020;28;20078;-81
2023/05/07 06:58:10;;;;;;;35.63;27.25;;;12.20;99.90;;;;;;4959564;28;20043;-81
2023/05/07 07:00:36;;;;;;;35.38;28.38;;;12.10;99.90;;;;;;4959837;28;20570;-80
2023/05/07 07:03:01;;;;;;;37.05;29.20;;;12.20;99.90;;;;;;4959494;28;20090;-81
2023/05/07 07:05:27;;;;;;;35.08;27.05;;;12.30;99.90;;;;;;4959777;28;20134;-81
2023/05/07 07:07:53;;;;;;;36.95;28.35;;;12.70;99.90;;;;;;4959604;28;20109;-80
2023/05/07 07:10:20;;;;;;;34.70;27.73;;;12.30;99.90;;;;;;4943603;28;20473;-80
2023/05/07 07:12:45;;;;;;;33.65;26.60;;;12.30;99.90;;;;;;4943146;28;20053;-81
2023/05/07 07:15:11;;;;;;;35.58;27.58;;;12.40;99.90;;;;;;4958859;28;20047;-81
2023/05/07 07:17:37;;;;;;;34.42;27.98;;;12.40;99.90;;;;;;4943031;28;20058;-82
2023/05/07 07:20:03;;;;;;;33.00;27.73;;;12.50;99.90;;;;;;4959035;28;20050;-82
2023/05/07 07:22:32;;;;;;;34.95;27.92;;;12.50;99.90;;;;;;4975242;28;20053;-81
2023/05/07 07:24:58;;;;;;;37.00;28.75;;;12.50;99.90;;;;;;4959327;28;20050;-82
2023/05/07 07:27:23;;;;;;;34.28;25.92;;;12.40;99.90;;;;;;4959320;28;20450;-81
2023/05/07 07:29:49;;;;;;;37.75;28.20;;;12.40;99.90;;;;;;4943227;28;20054;-82
2023/05/07 07:32:18;;;;;;;36.78;27.65;;;12.40;99.90;;;;;;4958997;28;20050;-81
2023/05/07 07:34:44;;;;;;;36.88;29.73;;;12.60;99.90;;;;;;4943339;28;20046;-82
2023/05/07 07:37:09;;;;;;;37.00;29.88;;;12.60;99.90;;;;;;4958521;28;20051;-81
2023/05/07 07:39:37;;;;;;;29.92;21.33;;;12.70;99.90;;;;;;4943102;28;20103;-81
2023/05/07 07:42:06;;;;;;;35.58;27.92;;;12.70;99.90;;;;;;4958574;28;20113;-81
2023/05/07 07:44:31;;;;;;;37.45;29.50;;;12.70;99.90;;;;;;4958704;28;20526;-82
2023/05/07 07:46:57;;;;;;;40.55;28.98;;;12.70;99.90;;;;;;4943071;28;20130;-81
2023/05/07 07:49:23;;;;;;;38.15;30.73;;;12.80;99.90;;;;;;4974675;28;20057;-82
2023/05/07 07:51:49;;;;;;;34.80;26.85;;;12.90;99.90;;;;;;4942484;28;20046;-82
2023/05/07 07:54:17;;;;;;;36.78;28.25;;;13.00;99.90;;;;;;4927270;28;20046;-81
2023/05/07 07:56:43;;;;;;;36.47;30.63;;;12.90;99.90;;;;;;4958638;28;20057;-82
2023/05/07 07:59:09;;;;;;;36.17;29.63;;;12.90;99.90;;;;;;4942766;28;20047;-81
2023/05/07 08:01:35;;;;;;;35.97;28.40;;;13.00;99.90;;;;;;4958733;28;20134;-81
2023/05/07 08:04:02;;;;;;;33.30;27.25;;;12.90;99.90;;;;;;4958641;28;20475;-81
2023/05/07 08:06:29;;;;;;;33.75;26.65;;;12.90;99.90;;;;;;4958663;28;20054;-81
2023/05/07 08:08:55;;;;;;;34.97;29.38;;;12.90;99.90;;;;;;4958686;28;20047;-81
2023/05/07 08:11:21;;;;;;;35.53;28.08;;;12.80;99.90;;;;;;4958144;28;20046;-82
2023/05/07 08:13:47;;;;;;;33.83;27.80;;;12.90;99.90;;;;;;4958437;28;20053;-81
2023/05/07 08:16:16;;;;;;;32.88;27.38;;;13.00;99.90;;;;;;4958270;28;20063;-81
2023/05/07 08:18:42;;;;;;;33.95;27.30;;;13.10;99.90;;;;;;4959044;28;20050;-81
2023/05/07 08:21:08;;;;;;;31.88;26.70;;;13.10;99.90;;;;;;4942406;28;20054;-81
2023/05/07 08:23:34;;;;;;;33.45;27.33;;;13.20;99.90;;;;;;4958167;28;20038;-81
2023/05/07 08:26:00;;;;;;;33.13;27.90;;;13.30;99.90;;;;;;4942260;28;20399;-81
2023/05/07 08:28:29;;;;;;;31.30;25.67;;;13.30;99.90;;;;;;4926425;28;20047;-81
2023/05/07 08:30:56;;;;;;;32.08;25.88;;;13.30;99.90;;;;;;4958261;28;20050;-81
2023/05/07 08:33:22;;;;;;;32.40;26.50;;;13.30;99.90;;;;;;4942436;28;20051;-81
2023/05/07 08:35:48;;;;;;;33.80;26.92;;;13.40;99.90;;;;;;4957857;28;20047;-81
2023/05/07 08:38:14;;;;;;;29.25;24.75;;;13.40;99.90;;;;;;4958013;28;20046;-81
2023/05/07 08:40:40;;;;;;;29.88;25.15;;;13.50;99.90;;;;;;4957875;28;20053;-81
2023/05/07 08:43:06;;;;;;;30.38;25.40;;;13.50;99.90;;;;;;4941723;28;20047;-81
2023/05/07 08:45:37;;;;;;;29.35;24.02;;;13.60;99.90;;;;;;4957919;28;20086;-81
2023/05/07 08:48:10;;;;;;;28.42;22.92;;;13.60;99.90;;;;;;4942018;28;20521;-81
2023/05/07 08:50:39;;;;;;;28.48;21.27;;;13.90;99.90;;;;;;4942052;28;20057;-81
2023/05/07 08:53:05;;;;;;;29.73;25.23;;;14.10;99.90;;;;;;4958163;28;20046;-81
2023/05/07 08:55:31;;;;;;;28.80;21.90;;;14.20;99.90;;;;;;4942146;28;20050;-81
2023/05/07 08:57:57;;;;;;;29.02;24.05;;;14.60;99.90;;;;;;4974477;28;20118;-81
2023/05/07 09:00:23;;;;;;;26.60;20.10;;;15.00;99.90;;;;;;4942112;28;20090;-81
2023/05/07 09:02:49;;;;;;;21.13;14.75;;;15.50;99.90;;;;;;4957581;28;20053;-81
2023/05/07 09:05:14;;;;;;;28.38;21.48;;;15.60;99.90;;;;;;4957926;28;20348;-81
2023/05/07 09:07:40;;;;;;;27.08;22.58;;;15.60;99.90;;;;;;4957653;28;20047;-81
2023/05/07 09:10:09;;;;;;;24.25;20.63;;;15.80;99.90;;;;;;4958248;28;20058;-81
2023/05/07 09:12:36;;;;;;;25.15;20.48;;;15.80;99.90;;;;;;4973519;28;20076;-81
2023/05/07 09:15:04;;;;;;;25.58;20.73;;;15.80;99.90;;;;;;4941753;28;20086;-81
2023/05/07 09:17:30;;;;;;;23.80;21.08;;;15.90;99.90;;;;;;4959280;28;20197;-81
2023/05/07 09:19:56;;;;;;;23.88;19.92;;;15.90;99.90;;;;;;4942819;28;20133;-81
2023/05/07 09:22:22;;;;;;;23.02;17.45;;;15.90;99.90;;;;;;4957490;28;20602;-81
2023/05/07 09:24:49;;;;;;;22.95;20.30;;;16.00;99.90;;;;;;4959498;28;20065;-81
2023/05/07 09:27:14;;;;;;;23.95;18.38;;;16.20;99.90;;;;;;4958682;28;20046;-81
2023/05/07 09:29:43;;;;;;;22.85;19.83;;;16.40;99.90;;;;;;4943558;28;20145;-82
2023/05/07 09:32:09;;;;;;;22.10;18.85;;;16.50;99.90;;;;;;4959624;28;20046;-82
2023/05/07 09:34:36;;;;;;;28.80;17.25;;;16.80;99.90;;;;;;4942152;28;20059;-81
2023/05/07 09:37:05;;;;;;;21.98;18.20;;;16.90;99.90;;;;;;4942830;28;20061;-82
2023/05/07 09:39:48;;;;;;;23.92;18.50;;;17.10;99.90;;;;;;4943630;28;20427;-82
2023/05/07 09:42:17;;;;;;;20.45;17.05;;;17.10;99.90;;;;;;4957597;28;20446;-82
2023/05/07 09:44:47;;;;;;;21.15;17.35;;;17.10;99.90;;;;;;4941649;28;20097;-83
2023/05/07 09:47:21;;;;;;;19.17;16.88;;;16.90;99.90;;;;;;4957720;28;20198;-83
2023/05/07 09:49:48;;;;;;;21.30;18.50;;;16.90;99.90;;;;;;4941553;28;20402;-82
2023/05/07 09:52:14;;;;;;;21.55;17.15;;;17.00;99.90;;;;;;4957440;28;20050;-83
2023/05/07 09:54:43;;;;;;;19.92;17.10;;;17.00;99.90;;;;;;4956872;28;20121;-83
2023/05/07 09:57:11;;;;;;;19.25;15.52;;;16.90;99.90;;;;;;4941737;28;20125;-83
2023/05/07 09:59:38;;;;;;;20.83;18.33;;;17.10;99.90;;;;;;4957606;28;20055;-83
2023/05/07 10:02:05;;;;;;;21.33;17.10;;;17.20;99.90;;;;;;4956717;28;20118;-84
2023/05/07 10:04:32;;;;;;;20.13;17.20;;;17.30;99.90;;;;;;4941435;28;20047;-83
2023/05/07 10:06:59;;;;;;;20.20;17.65;;;17.30;99.90;;;;;;4957599;28;20057;-83
2023/05/07 10:09:26;;;;;;;19.40;17.08;;;17.20;99.90;;;;;;4957174;28;20130;-83
2023/05/07 10:11:52;;;;;;;20.33;17.50;;;17.40;99.90;;;;;;4941229;28;20063;-84
2023/05/07 10:14:21;;;;;;;19.42;17.33;;;17.50;99.90;;;;;;4941239;28;20054;-83
2023/05/07 10:16:48;;;;;;;20.63;18.42;;;17.70;99.90;;;;;;4957397;28;20059;-83
2023/05/07 10:19:14;;;;;;;19.70;15.95;;;17.80;99.90;;;;;;4957342;28;20431;-83
2023/05/07 10:21:48;;;;;;;19.00;16.33;;;17.90;99.90;;;;;;4956948;28;20155;-83
2023/05/07 10:24:31;;;;;;;18.85;15.68;;;17.90;99.90;;;;;;4960240;28;20042;-83
2023/05/07 10:27:00;;;;;;;19.20;16.77;;;17.90;99.90;;;;;;4960615;28;20082;-84
2023/05/07 10:30:00;;;;;;;21.33;15.63;;;17.80;99.90;;;;;;4960971;28;20543;-84
2023/05/07 10:32:56;;;;;;;20.13;17.95;;;17.80;99.90;;;;;;4960369;28;20042;-84
2023/05/07 10:35:29;;;;;;;19.98;17.00;;;17.80;99.90;;;;;;4960430;28;20097;-84
2023/05/07 10:37:54;;;;;;;20.60;17.55;;;17.80;99.90;;;;;;4959910;28;20055;-83
2023/05/07 10:40:21;;;;;;;21.98;18.40;;;17.90;99.90;;;;;;4944252;28;20054;-83
2023/05/07 10:43:01;;;;;;;19.92;17.40;;;18.20;99.90;;;;;;4960080;28;20049;-83
2023/05/07 10:45:28;;;;;;;18.58;16.58;;;18.60;99.90;;;;;;4975852;28;20047;-83
2023/05/07 10:48:11;;;;;;;19.27;17.27;;;19.00;99.90;;;;;;4944065;28;20046;-84
2023/05/07 10:50:38;;;;;;;20.17;16.92;;;19.10;99.90;;;;;;4960770;28;20133;-83
2023/05/07 10:53:19;;;;;;;19.75;17.38;;;19.20;99.90;;;;;;4943940;28;20146;-84
2023/05/07 10:56:12;;;;;;;17.00;15.10;;;19.30;99.90;;;;;;4960059;28;20059;-84
2023/05/07 10:58:37;;;;;;;21.70;16.65;;;19.40;99.90;;;;;;4959753;28;20051;-84
2023/05/07 11:01:03;;;;;;;18.38;15.48;;;19.40;99.90;;;;;;4959909;28;20073;-83
2023/05/07 11:03:29;;;;;;;19.27;17.20;;;19.30;99.90;;;;;;4959507;28;20043;-84
2023/05/07 11:06:25;;;;;;;18.33;15.95;;;19.40;99.90;;;;;;4960459;28;20057;-83
2023/05/07 11:08:58;;;;;;;20.05;17.00;;;19.30;99.90;;;;;;4946071;28;20059;-84
2023/05/07 11:11:47;;;;;;;19.85;16.67;;;19.20;99.90;;;;;;4959852;28;20051;-82
2023/05/07 11:14:17;;;;;;;20.27;17.88;;;19.10;99.90;;;;;;4959369;28;20050;-83
2023/05/07 11:16:44;;;;;;;19.48;17.45;;;19.20;99.90;;;;;;4959527;28;20042;-82
2023/05/07 11:19:12;;;;;;;19.10;17.05;;;19.40;99.90;;;;;;4943598;28;20055;-83
2023/05/07 11:21:41;;;;;;;19.50;17.02;;;19.60;99.90;;;;;;4943565;28;20050;-83
2023/05/07 11:24:09;;;;;;;18.75;16.80;;;19.80;99.90;;;;;;4961456;28;20042;-84
2023/05/07 11:26:49;;;;;;;18.40;16.00;;;20.00;99.90;;;;;;4960573;28;20047;-83
2023/05/07 11:29:20;;;;;;;19.15;16.48;;;19.80;99.90;;;;;;4944435;28;20057;-84
2023/05/07 11:31:53;;;;;;;19.65;15.98;;;19.80;99.90;;;;;;4943740;28;20082;-85
2023/05/07 11:34:23;;;;;;;17.77;15.80;;;19.70;99.90;;;;;;4943699;28;20047;-83
2023/05/07 11:36:50;;;;;;;19.25;16.75;;;19.90;99.90;;;;;;4959778;28;20122;-82
2023/05/07 11:39:32;;;;;;;18.23;15.77;;;19.70;99.90;;;;;;4943763;28;20498;-84
2023/05/07 11:41:59;;;;;;;17.75;15.45;;;20.00;99.90;;;;;;4959386;28;20453;-84
2023/05/07 11:44:25;;;;;;;17.25;15.13;;;19.60;99.90;;;;;;4959392;28;20058;-84
2023/05/07 11:46:51;;;;;;;17.65;15.50;;;19.90;99.90;;;;;;4959386;28;20039;-83
2023/05/07 11:49:18;;;;;;;17.15;15.35;;;19.80;99.90;;;;;;4958324;28;20046;-84
2023/05/07 11:51:46;;;;;;;16.35;13.88;;;19.60;99.90;;;;;;4943165;28;20043;-85
2023/05/07 11:54:16;;;;;;;16.75;14.70;;;19.80;99.90;;;;;;4959389;28;20059;-84
2023/05/07 11:56:41;;;;;;;18.08;14.00;;;20.00;99.90;;;;;;4959937;28;20451;-83
2023/05/07 11:59:07;;;;;;;17.33;15.13;;;19.80;99.90;;;;;;4959146;28;20055;-84
2023/05/07 12:01:35;;;;;;;17.00;14.68;;;19.90;99.90;;;;;;4958834;28;20046;-84
2023/05/07 12:04:04;;;;;;;18.42;13.27;;;19.80;99.90;;;;;;4975556;28;20039;-84
2023/05/07 12:06:36;;;;;;;15.90;14.18;;;19.20;99.90;;;;;;4958752;28;20047;-84
2023/05/07 12:09:02;;;;;;;17.50;14.65;;;19.60;99.90;;;;;;4942692;28;20055;-83
2023/05/07 12:11:28;;;;;;;17.40;15.48;;;19.60;99.90;;;;;;4942356;28;20455;-84
2023/05/07 12:13:56;;;;;;;17.17;15.38;;;19.70;99.90;;;;;;4922940;29;20047;-83
2023/05/07 12:16:23;;;;;;;18.05;15.15;;;19.70;99.90;;;;;;4938973;29;20130;-85
2023/05/07 12:18:50;;;;;;;17.17;14.77;;;19.30;99.90;;;;;;4922918;29;20453;-84
2023/05/07 12:21:17;;;;;;;17.27;15.30;;;19.80;99.90;;;;;;4939285;29;20093;-83
2023/05/07 12:23:44;;;;;;;16.95;14.20;;;19.50;99.90;;;;;;4939213;29;20066;-83
2023/05/07 12:26:10;;;;;;;16.02;14.10;;;19.10;99.90;;;;;;4938986;29;20051;-82
2023/05/07 12:28:38;;;;;;;15.57;13.48;;;19.50;99.90;;;;;;4938802;29;20058;-82